Time;durP1;ratioP1;P1;durP2;ratioP2;P2;SDS_P1;SDS_P2;PMS_P1;PMS_P2;Temp;Humidity;BMP_temperature;BMP_pressure;BME280_temperature;BME280_humidity;BME280_pressure;Samples;Min_cycle;Max_cycle;Signal;HPM_P1;HPM_P2
2023/06/01 00:02:02;;;;;;;;;;;17.20;71.40;;;;;;5014951;28;87571;-47
2023/06/01 00:04:27;;;;;;;;;;;17.20;71.40;;;;;;5012967;28;87062;-47
2023/06/01 00:06:53;;;;;;;;;;;17.10;71.30;;;;;;5016647;28;86309;-47
2023/06/01 00:09:18;;;;;;;;;;;17.20;71.40;;;;;;5012843;28;87214;-46
2023/06/01 00:11:44;;;;;;;;;;;17.10;71.20;;;;;;5014946;28;87340;-47
2023/06/01 00:14:10;;;;;;;;;;;17.20;71.30;;;;;;5011592;28;88039;-46
2023/06/01 00:16:36;;;;;;;;;;;17.10;71.30;;;;;;5013262;28;88141;-48
2023/06/01 00:19:03;;;;;;;;;;;17.10;71.30;;;;;;5014727;28;86872;-47
2023/06/01 00:21:28;;;;;;;;;;;17.10;71.30;;;;;;4994565;28;90577;-46
2023/06/01 00:23:54;;;;;;;;;;;17.10;71.30;;;;;;5012902;28;88210;-45
2023/06/01 00:26:21;;;;;;;;;;;17.10;71.20;;;;;;5012020;28;87232;-46
2023/06/01 00:28:46;;;;;;;;;;;17.10;71.30;;;;;;5017467;28;87369;-46
2023/06/01 00:31:12;;;;;;;;;;;17.00;71.30;;;;;;5013579;28;86328;-46
2023/06/01 00:33:37;;;;;;;;;;;17.10;71.20;;;;;;5012824;28;86965;-49
2023/06/01 00:36:03;;;;;;;;;;;17.10;71.20;;;;;;5015180;28;87288;-46
2023/06/01 00:38:28;;;;;;;;;;;17.00;71.10;;;;;;5011608;28;88366;-48
2023/06/01 00:40:54;;;;;;;;;;;17.10;71.20;;;;;;5013300;28;88470;-46
2023/06/01 00:43:20;;;;;;;;;;;17.00;71.20;;;;;;5013736;28;89511;-47
2023/06/01 00:45:45;;;;;;;;;;;17.00;71.20;;;;;;5011749;28;87196;-45
2023/06/01 00:48:12;;;;;;;;;;;17.00;71.20;;;;;;5016296;28;87714;-46
2023/06/01 00:50:38;;;;;;;;;;;17.00;71.20;;;;;;5014623;28;86975;-48
2023/06/01 00:53:05;;;;;;;;;;;17.00;71.20;;;;;;5011767;28;87009;-46
2023/06/01 00:55:31;;;;;;;;;;;16.90;71.30;;;;;;5013394;28;87626;-47
2023/06/01 00:57:57;;;;;;;;;;;16.90;71.20;;;;;;5013744;28;87396;-46
2023/06/01 01:00:23;;;;;;;;;;;16.90;71.20;;;;;;5011664;28;87042;-47
2023/06/01 01:02:48;;;;;;;;;;;16.90;71.20;;;;;;4994534;28;88802;-46
2023/06/01 01:05:15;;;;;;;;;;;16.90;71.20;;;;;;5012182;28;87295;-48
2023/06/01 01:07:41;;;;;;;;;;;16.90;71.20;;;;;;5011562;28;87008;-47
2023/06/01 01:10:09;;;;;;;;;;;16.90;71.20;;;;;;5013906;28;87990;-46
2023/06/01 01:12:35;;;;;;;;;;;16.90;71.20;;;;;;5012264;28;87255;-48
2023/06/01 01:15:26;;;;;;;;;;;16.80;71.30;;;;;;5013546;28;88253;-47
2023/06/01 01:18:01;;;;;;;;;;;16.90;71.20;;;;;;5006744;28;87461;-48
2023/06/01 01:20:38;;;;;;;;;;;16.80;71.20;;;;;;5013079;28;87431;-46
2023/06/01 01:23:06;;;;;;;;;;;16.80;71.20;;;;;;5011724;28;87519;-46
2023/06/01 01:25:51;;;;;;;;;;;16.80;71.20;;;;;;5011218;28;87911;-46
2023/06/01 01:28:34;;;;;;;;;;;16.80;71.30;;;;;;5012612;28;88022;-48
2023/06/01 01:31:01;;;;;;;;;;;16.80;71.30;;;;;;5012998;28;88284;-47
2023/06/01 01:33:27;;;;;;;;;;;16.80;71.30;;;;;;5013813;28;87145;-48
2023/06/01 01:35:53;;;;;;;;;;;16.80;71.30;;;;;;5011892;28;88046;-47
2023/06/01 01:38:18;;;;;;;;;;;16.80;71.30;;;;;;5012660;28;87074;-46
2023/06/01 01:40:44;;;;;;;;;;;16.80;71.20;;;;;;5010957;28;87519;-47
2023/06/01 01:43:10;;;;;;;;;;;16.80;71.20;;;;;;5012852;28;88037;-47
2023/06/01 01:45:36;;;;;;;;;;;16.70;71.20;;;;;;5012617;28;86438;-46
2023/06/01 01:48:16;;;;;;;;;;;16.70;71.20;;;;;;5011056;28;87262;-46
2023/06/01 01:50:48;;;;;;;;;;;16.70;71.20;;;;;;5012526;28;88218;-48
2023/06/01 01:53:14;;;;;;;;;;;16.70;71.20;;;;;;5010411;28;88049;-46
2023/06/01 01:55:40;;;;;;;;;;;16.70;71.20;;;;;;5014631;28;88283;-47
2023/06/01 01:58:06;;;;;;;;;;;16.60;71.40;;;;;;5013129;28;87173;-47
2023/06/01 02:00:31;;;;;;;;;;;16.70;71.40;;;;;;5010443;28;87111;-46
2023/06/01 02:02:57;;;;;;;;;;;16.60;71.20;;;;;;5012261;28;87942;-45
2023/06/01 02:05:23;;;;;;;;;;;16.70;71.30;;;;;;5012628;28;87198;-48
2023/06/01 02:07:48;;;;;;;;;;;16.60;71.20;;;;;;5011210;28;87617;-50
2023/06/01 02:10:14;;;;;;;;;;;16.60;71.30;;;;;;5011139;28;87655;-47
2023/06/01 02:12:40;;;;;;;;;;;16.60;71.30;;;;;;5011428;28;87213;-47
2023/06/01 02:15:06;;;;;;;;;;;16.60;71.30;;;;;;5013153;28;87333;-46
2023/06/01 02:17:32;;;;;;;;;;;16.60;71.30;;;;;;5012631;28;90736;-46
2023/06/01 02:19:58;;;;;;;;;;;16.60;71.30;;;;;;5015279;28;88614;-46
2023/06/01 02:22:24;;;;;;;;;;;16.60;71.60;;;;;;5016142;28;88026;-46
2023/06/01 02:24:49;;;;;;;;;;;16.50;71.30;;;;;;5013956;28;87165;-47
2023/06/01 02:27:15;;;;;;;;;;;16.60;71.40;;;;;;5015734;28;87609;-47
2023/06/01 02:29:41;;;;;;;;;;;16.60;71.30;;;;;;5015081;28;88600;-47
2023/06/01 02:32:06;;;;;;;;;;;16.50;71.30;;;;;;5013831;28;87117;-47
2023/06/01 02:34:32;;;;;;;;;;;16.50;71.20;;;;;;4998483;28;88177;-48
2023/06/01 02:36:58;;;;;;;;;;;16.50;71.30;;;;;;4998764;28;88852;-48
2023/06/01 02:39:24;;;;;;;;;;;16.50;71.30;;;;;;5016825;28;87127;-46
2023/06/01 02:41:49;;;;;;;;;;;16.50;71.20;;;;;;5015378;28;89856;-47
2023/06/01 02:44:15;;;;;;;;;;;16.50;71.30;;;;;;5014430;28;87175;-47
2023/06/01 02:46:40;;;;;;;;;;;16.50;71.40;;;;;;5014246;28;87515;-48
2023/06/01 02:49:06;;;;;;;;;;;16.50;71.90;;;;;;5015939;28;88550;-46
2023/06/01 02:51:32;;;;;;;;;;;16.40;71.40;;;;;;5013962;28;87009;-46
2023/06/01 02:53:58;;;;;;;;;;;16.50;71.40;;;;;;5013578;28;88754;-46
2023/06/01 02:56:24;;;;;;;;;;;16.50;71.40;;;;;;5015890;28;88135;-49
2023/06/01 02:58:50;;;;;;;;;;;16.40;71.30;;;;;;5017012;28;86771;-46
2023/06/01 03:01:16;;;;;;;;;;;16.40;71.40;;;;;;5014583;28;87856;-47
2023/06/01 03:03:42;;;;;;;;;;;16.40;71.30;;;;;;5014609;28;87161;-47
2023/06/01 03:06:08;;;;;;;;;;;16.40;71.30;;;;;;5010931;28;88920;-47
2023/06/01 03:08:34;;;;;;;;;;;16.40;71.30;;;;;;5010402;28;88058;-46
2023/06/01 03:11:00;;;;;;;;;;;16.40;71.30;;;;;;5012233;28;87221;-47
2023/06/01 03:13:25;;;;;;;;;;;16.40;71.30;;;;;;5014458;28;87397;-47
2023/06/01 03:15:51;;;;;;;;;;;16.40;71.40;;;;;;5007147;28;88258;-46
2023/06/01 03:18:16;;;;;;;;;;;16.30;71.30;;;;;;5011750;28;87276;-49
2023/06/01 03:20:42;;;;;;;;;;;16.30;71.40;;;;;;5014526;28;87526;-46
2023/06/01 03:23:07;;;;;;;;;;;16.40;71.30;;;;;;5015667;28;87258;-47
2023/06/01 03:25:33;;;;;;;;;;;16.30;71.30;;;;;;5018614;28;88813;-47
2023/06/01 03:27:58;;;;;;;;;;;16.30;71.30;;;;;;5006376;28;87313;-46
2023/06/01 03:30:25;;;;;;;;;;;16.30;71.30;;;;;;5014683;28;88081;-46
2023/06/01 03:32:51;;;;;;;;;;;16.30;71.40;;;;;;5011484;28;88360;-47
2023/06/01 03:35:16;;;;;;;;;;;16.30;71.30;;;;;;5010852;28;89716;-47
2023/06/01 03:37:42;;;;;;;;;;;16.30;71.30;;;;;;5009920;28;87298;-47
2023/06/01 03:40:11;;;;;;;;;;;16.30;71.40;;;;;;5015315;28;87726;-46
2023/06/01 03:42:37;;;;;;;;;;;16.30;71.40;;;;;;4997498;28;88813;-48
2023/06/01 03:45:04;;;;;;;;;;;16.30;71.30;;;;;;5010534;28;87279;-47
2023/06/01 03:47:30;;;;;;;;;;;16.30;71.40;;;;;;5007968;28;86463;-48
2023/06/01 03:49:57;;;;;;;;;;;16.20;71.30;;;;;;4996398;28;87381;-47
2023/06/01 03:52:23;;;;;;;;;;;16.30;71.40;;;;;;5015833;28;87197;-48
2023/06/01 03:54:48;;;;;;;;;;;16.30;71.40;;;;;;5008000;28;89351;-48
2023/06/01 03:57:14;;;;;;;;;;;16.20;71.30;;;;;;5012022;28;87832;-47
2023/06/01 03:59:40;;;;;;;;;;;16.20;71.40;;;;;;5012838;28;87467;-47
2023/06/01 04:02:09;;;;;;;;;;;16.20;71.30;;;;;;5010270;28;88092;-48
2023/06/01 04:04:34;;;;;;;;;;;16.20;71.30;;;;;;5012393;28;87189;-48
2023/06/01 04:07:02;;;;;;;;;;;16.20;71.30;;;;;;5006947;28;88216;-46
2023/06/01 04:09:28;;;;;;;;;;;16.20;71.30;;;;;;5012155;28;87197;-48
2023/06/01 04:11:54;;;;;;;;;;;16.20;71.30;;;;;;5012096;28;87274;-49
2023/06/01 04:14:20;;;;;;;;;;;16.20;71.20;;;;;;5011480;28;88954;-47
2023/06/01 04:16:46;;;;;;;;;;;16.20;71.20;;;;;;5014659;28;87297;-47
2023/06/01 04:19:12;;;;;;;;;;;16.20;71.20;;;;;;5012242;28;88204;-46
2023/06/01 04:21:37;;;;;;;;;;;16.20;71.20;;;;;;5012788;28;88099;-46
2023/06/01 04:24:03;;;;;;;;;;;16.20;71.20;;;;;;5011033;28;87809;-46
2023/06/01 04:26:31;;;;;;;;;;;16.20;71.20;;;;;;5013353;28;88367;-47
2023/06/01 04:29:00;;;;;;;;;;;16.20;71.10;;;;;;5012899;28;87102;-48
2023/06/01 04:31:25;;;;;;;;;;;16.20;71.20;;;;;;5010936;28;88536;-47
2023/06/01 04:33:56;;;;;;;;;;;16.20;71.20;;;;;;4995580;28;91131;-47
2023/06/01 04:36:22;;;;;;;;;;;16.20;71.30;;;;;;5011142;28;86377;-46
2023/06/01 04:38:52;;;;;;;;;;;16.20;71.30;;;;;;5013835;28;87135;-47
2023/06/01 04:41:20;;;;;;;;;;;16.20;71.30;;;;;;5007706;28;88407;-47
2023/06/01 04:43:51;;;;;;;;;;;16.20;71.20;;;;;;5005948;28;88040;-48
2023/06/01 04:46:18;;;;;;;;;;;16.20;71.20;;;;;;5013544;28;88401;-46
2023/06/01 04:48:44;;;;;;;;;;;16.20;71.20;;;;;;5013218;28;87935;-46
2023/06/01 04:51:10;;;;;;;;;;;16.20;71.20;;;;;;5012417;28;87628;-47
2023/06/01 04:53:35;;;;;;;;;;;16.20;71.20;;;;;;4997916;28;88852;-47
2023/06/01 04:56:01;;;;;;;;;;;16.20;71.20;;;;;;5012521;28;87253;-47
2023/06/01 04:58:27;;;;;;;;;;;16.20;71.30;;;;;;5012152;28;87478;-46
2023/06/01 05:00:53;;;;;;;;;;;16.20;71.20;;;;;;5011656;28;88713;-47
2023/06/01 05:03:20;;;;;;;;;;;16.20;71.40;;;;;;5012545;28;87211;-46
2023/06/01 05:05:46;;;;;;;;;;;16.20;71.40;;;;;;5012209;28;87219;-47
2023/06/01 05:08:12;;;;;;;;;;;16.20;71.40;;;;;;5014011;28;88981;-46
2023/06/01 05:10:37;;;;;;;;;;;16.20;71.50;;;;;;5012372;28;88444;-47
2023/06/01 05:13:03;;;;;;;;;;;16.20;71.40;;;;;;5011085;28;88145;-46
2023/06/01 05:15:30;;;;;;;;;;;16.20;71.30;;;;;;5010202;28;87109;-46
2023/06/01 05:17:56;;;;;;;;;;;16.20;71.30;;;;;;5010294;28;87900;-46
2023/06/01 05:20:21;;;;;;;;;;;16.20;71.40;;;;;;5009748;28;88299;-47
2023/06/01 05:22:47;;;;;;;;;;;16.20;71.40;;;;;;5011951;28;87123;-46
2023/06/01 05:25:12;;;;;;;;;;;16.20;71.60;;;;;;5011562;28;87606;-48
2023/06/01 05:27:38;;;;;;;;;;;16.20;71.50;;;;;;5008112;28;88156;-47
2023/06/01 05:30:05;;;;;;;;;;;16.20;71.60;;;;;;5013124;28;87473;-46
2023/06/01 05:32:31;;;;;;;;;;;16.20;71.60;;;;;;5011693;28;88118;-48
2023/06/01 05:34:56;;;;;;;;;;;16.20;71.70;;;;;;5010529;28;87548;-48
2023/06/01 05:37:22;;;;;;;;;;;16.20;71.80;;;;;;5006643;28;88285;-48
2023/06/01 05:39:47;;;;;;;;;;;16.20;71.80;;;;;;5013197;28;88137;-47
2023/06/01 05:42:13;;;;;;;;;;;16.20;71.80;;;;;;5009873;28;87273;-47
2023/06/01 05:44:38;;;;;;;;;;;16.20;72.30;;;;;;5009246;28;87580;-47
2023/06/01 05:47:04;;;;;;;;;;;16.20;71.90;;;;;;5007347;28;87733;-47
2023/06/01 05:49:31;;;;;;;;;;;16.20;72.00;;;;;;5014126;28;86391;-46
2023/06/01 05:51:57;;;;;;;;;;;16.20;71.90;;;;;;5015142;28;87081;-48
2023/06/01 05:54:22;;;;;;;;;;;16.20;72.00;;;;;;5010399;28;89117;-46
2023/06/01 05:56:48;;;;;;;;;;;16.20;71.80;;;;;;5011431;28;88632;-48
2023/06/01 05:59:13;;;;;;;;;;;16.20;71.90;;;;;;5011176;28;87283;-46
2023/06/01 06:01:40;;;;;;;;;;;16.20;71.90;;;;;;5008726;28;87932;-48
2023/06/01 06:04:06;;;;;;;;;;;16.20;72.10;;;;;;5009687;28;87431;-47
2023/06/01 06:06:31;;;;;;;;;;;16.20;72.00;;;;;;5008800;28;87516;-47
2023/06/01 06:08:57;;;;;;;;;;;16.30;72.10;;;;;;5012112;28;87112;-49
2023/06/01 06:11:22;;;;;;;;;;;16.30;72.00;;;;;;5009119;28;88206;-48
2023/06/01 06:13:48;;;;;;;;;;;16.30;71.90;;;;;;5008992;28;87470;-47
2023/06/01 06:16:14;;;;;;;;;;;16.30;72.00;;;;;;5009420;28;87002;-47
2023/06/01 06:18:39;;;;;;;;;;;16.30;72.00;;;;;;5012449;28;88228;-47
2023/06/01 06:21:05;;;;;;;;;;;16.30;72.00;;;;;;5010407;28;88680;-47
2023/06/01 06:23:32;;;;;;;;;;;16.30;71.80;;;;;;5010032;28;88304;-48
2023/06/01 06:25:58;;;;;;;;;;;16.30;72.00;;;;;;4996672;28;91219;-46
2023/06/01 06:28:23;;;;;;;;;;;16.30;71.90;;;;;;5012808;28;87164;-46
2023/06/01 06:30:49;;;;;;;;;;;16.30;72.10;;;;;;5010292;28;87264;-48
2023/06/01 06:33:15;;;;;;;;;;;16.30;72.10;;;;;;5011515;28;87996;-47
2023/06/01 06:35:41;;;;;;;;;;;16.30;72.70;;;;;;5011820;28;87241;-47
2023/06/01 06:38:07;;;;;;;;;;;16.30;72.90;;;;;;5010408;28;86509;-47
2023/06/01 06:40:32;;;;;;;;;;;16.30;72.50;;;;;;5011578;28;87550;-46
2023/06/01 06:42:58;;;;;;;;;;;16.30;72.40;;;;;;5012524;28;87587;-47
2023/06/01 06:45:23;;;;;;;;;;;16.30;72.30;;;;;;5008965;28;89256;-46
2023/06/01 06:47:49;;;;;;;;;;;16.30;72.40;;;;;;5012175;28;87189;-49
2023/06/01 06:50:15;;;;;;;;;;;16.30;72.10;;;;;;5011935;28;87498;-47
2023/06/01 06:52:41;;;;;;;;;;;16.30;72.40;;;;;;5009588;28;87205;-47
2023/06/01 06:55:06;;;;;;;;;;;16.30;72.40;;;;;;5012556;28;87277;-49
2023/06/01 06:57:34;;;;;;;;;;;16.30;72.30;;;;;;5014055;28;87582;-47
2023/06/01 06:59:59;;;;;;;;;;;16.30;72.40;;;;;;5012580;28;87234;-48
2023/06/01 07:02:25;;;;;;;;;;;16.40;72.50;;;;;;5010399;28;86506;-48
2023/06/01 07:04:51;;;;;;;;;;;16.40;72.50;;;;;;5013497;28;87734;-48
2023/06/01 07:07:17;;;;;;;;;;;16.40;72.50;;;;;;5015587;28;87109;-47
2023/06/01 07:09:42;;;;;;;;;;;16.40;72.80;;;;;;5013939;28;87978;-47
2023/06/01 07:12:08;;;;;;;;;;;16.40;72.90;;;;;;5013525;28;88221;-50
2023/06/01 07:14:34;;;;;;;;;;;16.40;72.70;;;;;;5013797;28;87035;-48
2023/06/01 07:17:01;;;;;;;;;;;16.40;72.70;;;;;;5018679;28;86945;-47
2023/06/01 07:19:32;;;;;;;;;;;16.40;73.20;;;;;;5013535;28;87131;-46
2023/06/01 07:22:01;;;;;;;;;;;16.40;73.20;;;;;;5013550;28;87420;-47
2023/06/01 07:24:27;;;;;;;;;;;16.40;73.60;;;;;;5012509;28;87514;-47
2023/06/01 07:26:53;;;;;;;;;;;16.40;73.60;;;;;;5014098;28;86461;-47
2023/06/01 07:29:20;;;;;;;;;;;16.40;73.60;;;;;;5015356;28;87016;-47
2023/06/01 07:31:46;;;;;;;;;;;16.40;73.60;;;;;;5012493;28;88360;-48
2023/06/01 07:34:11;;;;;;;;;;;16.50;73.50;;;;;;5013991;28;88017;-47
2023/06/01 07:36:38;;;;;;;;;;;16.50;73.50;;;;;;5015161;28;87545;-48
2023/06/01 07:39:06;;;;;;;;;;;16.50;73.80;;;;;;5015083;28;88233;-47
2023/06/01 07:41:35;;;;;;;;;;;16.50;73.30;;;;;;5014970;28;87402;-47
2023/06/01 07:44:00;;;;;;;;;;;16.50;73.30;;;;;;5014317;28;88132;-47
2023/06/01 07:46:26;;;;;;;;;;;16.50;73.60;;;;;;5012244;28;87551;-48
2023/06/01 07:48:51;;;;;;;;;;;16.50;73.70;;;;;;5014230;28;87536;-48
2023/06/01 07:51:17;;;;;;;;;;;16.50;73.40;;;;;;5014304;28;87839;-47
2023/06/01 07:53:43;;;;;;;;;;;16.50;73.60;;;;;;5011904;28;87204;-48
2023/06/01 07:56:08;;;;;;;;;;;16.50;73.80;;;;;;5014315;28;87291;-47
2023/06/01 07:58:34;;;;;;;;;;;16.50;73.60;;;;;;5012970;28;89081;-46
2023/06/01 08:00:59;;;;;;;;;;;16.50;73.50;;;;;;5015651;28;87033;-48
2023/06/01 08:03:25;;;;;;;;;;;16.50;74.00;;;;;;5014765;28;88226;-48
2023/06/01 08:05:57;;;;;;;;;;;16.50;74.00;;;;;;5013472;28;87224;-47
2023/06/01 08:08:23;;;;;;;;;;;16.50;74.00;;;;;;5012268;28;87562;-47
2023/06/01 08:10:48;;;;;;;;;;;16.50;74.00;;;;;;5014054;28;88317;-47
2023/06/01 08:13:14;;;;;;;;;;;16.50;73.90;;;;;;5013011;28;87181;-48
2023/06/01 08:15:42;;;;;;;;;;;16.50;73.90;;;;;;5012846;28;87412;-46
2023/06/01 08:18:08;;;;;;;;;;;16.50;73.90;;;;;;5011434;28;89279;-47
2023/06/01 08:20:35;;;;;;;;;;;16.50;73.80;;;;;;5013466;28;87131;-47
2023/06/01 08:23:02;;;;;;;;;;;16.50;74.00;;;;;;5016600;28;88558;-47
2023/06/01 08:25:28;;;;;;;;;;;16.50;74.00;;;;;;5011926;28;87122;-47
2023/06/01 08:27:53;;;;;;;;;;;16.60;74.20;;;;;;5012692;28;87452;-47
2023/06/01 08:30:19;;;;;;;;;;;16.60;74.20;;;;;;5013800;28;88133;-48
2023/06/01 08:32:44;;;;;;;;;;;16.60;74.10;;;;;;5011933;28;87098;-47
2023/06/01 08:35:10;;;;;;;;;;;16.70;74.00;;;;;;5014062;28;87102;-47
2023/06/01 08:37:36;;;;;;;;;;;16.70;74.10;;;;;;5013156;28;88053;-47
2023/06/01 08:40:04;;;;;;;;;;;16.70;74.30;;;;;;5012267;28;86803;-47
2023/06/01 08:42:34;;;;;;;;;;;16.70;74.50;;;;;;5013668;28;87034;-46
2023/06/01 08:45:03;;;;;;;;;;;16.70;74.40;;;;;;5014809;28;87129;-47
2023/06/01 08:47:30;;;;;;;;;;;16.60;74.40;;;;;;5010772;28;88031;-46
2023/06/01 08:49:57;;;;;;;;;;;16.70;74.30;;;;;;5012784;28;88012;-47
2023/06/01 08:52:27;;;;;;;;;;;16.70;74.20;;;;;;5014216;28;87014;-48
2023/06/01 08:54:53;;;;;;;;;;;16.70;74.20;;;;;;5012104;28;87397;-47
2023/06/01 08:57:20;;;;;;;;;;;16.80;74.90;;;;;;5011747;28;88138;-47
2023/06/01 08:59:46;;;;;;;;;;;16.80;74.20;;;;;;5014408;28;87068;-47
2023/06/01 09:02:11;;;;;;;;;;;16.80;74.20;;;;;;5011990;28;87111;-47
2023/06/01 09:04:41;;;;;;;;;;;16.90;74.20;;;;;;5013020;28;87447;-48
2023/06/01 09:07:07;;;;;;;;;;;16.90;74.30;;;;;;5016769;28;86853;-46
2023/06/01 09:09:33;;;;;;;;;;;16.80;75.00;;;;;;5011605;28;88012;-49
2023/06/01 09:12:18;;;;;;;;;;;16.80;74.50;;;;;;5012657;28;88050;-48
2023/06/01 09:14:44;;;;;;;;;;;16.90;74.50;;;;;;5012451;28;88380;-48
2023/06/01 09:17:22;;;;;;;;;;;16.90;74.40;;;;;;5010870;28;88190;-47
2023/06/01 09:19:49;;;;;;;;;;;16.90;74.20;;;;;;5012961;28;87207;-49
2023/06/01 09:22:15;;;;;;;;;;;16.90;74.30;;;;;;5011174;28;87402;-48
2023/06/01 09:24:40;;;;;;;;;;;16.90;74.20;;;;;;5013236;28;88189;-47
2023/06/01 09:27:07;;;;;;;;;;;16.90;74.30;;;;;;5015491;28;87175;-49
2023/06/01 09:29:32;;;;;;;;;;;17.00;74.20;;;;;;5013914;28;86851;-47
2023/06/01 09:31:59;;;;;;;;;;;17.00;74.00;;;;;;5011187;28;87863;-48
2023/06/01 09:34:24;;;;;;;;;;;17.00;74.10;;;;;;5012468;28;87513;-47
2023/06/01 09:36:51;;;;;;;;;;;17.00;74.30;;;;;;5012286;28;88204;-47
2023/06/01 09:39:18;;;;;;;;;;;17.00;74.30;;;;;;5010865;28;87186;-48
2023/06/01 09:41:58;;;;;;;;;;;17.00;74.20;;;;;;5014184;28;87212;-49
2023/06/01 09:44:30;;;;;;;;;;;17.10;74.30;;;;;;5010440;28;89624;-48
2023/06/01 09:47:00;;;;;;;;;;;17.10;74.10;;;;;;5011300;28;87028;-48
2023/06/01 09:49:34;;;;;;;;;;;17.10;74.10;;;;;;5013563;28;87409;-48
2023/06/01 09:52:03;;;;;;;;;;;17.10;74.00;;;;;;5011056;28;87269;-48
2023/06/01 09:54:30;;;;;;;;;;;17.20;74.10;;;;;;5011517;28;87668;-47
2023/06/01 09:56:56;;;;;;;;;;;17.20;74.00;;;;;;5013075;28;88034;-48
2023/06/01 09:59:22;;;;;;;;;;;17.20;74.00;;;;;;5010940;28;87161;-47
2023/06/01 10:01:50;;;;;;;;;;;17.20;74.10;;;;;;5010239;28;88088;-48
2023/06/01 10:04:18;;;;;;;;;;;17.20;74.10;;;;;;5011655;28;87832;-47
2023/06/01 10:06:44;;;;;;;;;;;17.20;74.20;;;;;;5013414;28;87087;-47
2023/06/01 10:09:18;;;;;;;;;;;17.20;74.30;;;;;;5010820;28;87116;-47
2023/06/01 10:11:43;;;;;;;;;;;17.20;74.20;;;;;;5012710;28;88158;-48
2023/06/01 10:14:10;;;;;;;;;;;17.30;74.20;;;;;;5011764;28;87376;-48
2023/06/01 10:16:35;;;;;;;;;;;17.30;74.30;;;;;;5010952;28;88221;-47
2023/06/01 10:19:01;;;;;;;;;;;17.30;74.40;;;;;;5011710;28;86299;-47
2023/06/01 10:21:27;;;;;;;;;;;17.30;74.50;;;;;;5013288;28;87081;-47
2023/06/01 10:23:53;;;;;;;;;;;17.40;74.50;;;;;;5010315;28;88107;-46
2023/06/01 10:26:20;;;;;;;;;;;17.40;74.60;;;;;;5010700;28;88121;-47
2023/06/01 10:28:46;;;;;;;;;;;17.40;74.60;;;;;;5010625;28;88470;-48
2023/06/01 10:31:30;;;;;;;;;;;17.50;74.40;;;;;;5012243;28;88145;-48
2023/06/01 10:33:57;;;;;;;;;;;17.50;74.50;;;;;;5013296;28;88055;-49
2023/06/01 10:36:23;;;;;;;;;;;17.50;74.60;;;;;;5011034;28;88024;-47
2023/06/01 10:38:48;;;;;;;;;;;17.50;74.60;;;;;;4995506;28;87176;-46
2023/06/01 10:41:30;;;;;;;;;;;17.60;74.60;;;;;;5013683;28;87110;-47
2023/06/01 10:43:56;;;;;;;;;;;17.60;74.50;;;;;;5016247;28;87262;-46
2023/06/01 10:46:38;;;;;;;;;;;17.60;74.60;;;;;;5014148;28;87119;-47
2023/06/01 10:49:04;;;;;;;;;;;17.70;74.50;;;;;;5013144;28;87492;-48
2023/06/01 10:51:30;;;;;;;;;;;17.70;74.40;;;;;;5013817;28;89040;-48
2023/06/01 10:54:15;;;;;;;;;;;17.70;74.50;;;;;;5015871;28;87124;-48
2023/06/01 10:56:41;;;;;;;;;;;17.70;74.40;;;;;;5018285;28;87509;-48
2023/06/01 10:59:09;;;;;;;;;;;17.80;74.50;;;;;;5013838;28;87111;-47
2023/06/01 11:01:39;;;;;;;;;;;17.80;74.40;;;;;;5013982;28;87165;-47
2023/06/01 11:04:07;;;;;;;;;;;17.80;74.50;;;;;;5015641;28;87972;-47
2023/06/01 11:06:35;;;;;;;;;;;17.80;75.10;;;;;;5012965;28;87235;-47
2023/06/01 11:09:05;;;;;;;;;;;17.80;74.50;;;;;;5014351;28;87204;-48
2023/06/01 11:11:52;;;;;;;;;;;17.80;74.40;;;;;;5015433;28;88074;-47
2023/06/01 11:14:18;;;;;;;;;;;17.80;74.50;;;;;;5014745;28;87172;-47
2023/06/01 11:16:44;;;;;;;;;;;17.80;74.40;;;;;;5016362;28;88048;-49
2023/06/01 11:19:10;;;;;;;;;;;17.90;74.50;;;;;;5013270;28;87188;-48
2023/06/01 11:21:39;;;;;;;;;;;17.90;74.40;;;;;;5015845;28;87360;-47
2023/06/01 11:24:09;;;;;;;;;;;17.90;74.40;;;;;;5013829;28;87248;-47
2023/06/01 11:26:38;;;;;;;;;;;18.00;74.50;;;;;;5012985;28;87157;-49
2023/06/01 11:29:04;;;;;;;;;;;18.00;74.40;;;;;;5014963;28;87541;-48
2023/06/01 11:31:33;;;;;;;;;;;18.00;74.40;;;;;;5013457;28;88146;-48
2023/06/01 11:34:00;;;;;;;;;;;18.00;74.30;;;;;;5015972;28;86244;-47
2023/06/01 11:36:26;;;;;;;;;;;18.00;74.30;;;;;;5013893;28;87538;-48
2023/06/01 11:38:52;;;;;;;;;;;18.00;74.30;;;;;;5015840;28;88037;-47
2023/06/01 11:41:22;;;;;;;;;;;18.00;74.40;;;;;;5014845;28;88429;-49
2023/06/01 11:43:53;;;;;;;;;;;18.10;74.40;;;;;;5013130;28;88146;-48
2023/06/01 11:46:19;;;;;;;;;;;18.00;74.30;;;;;;5015548;28;87027;-47
2023/06/01 11:48:58;;;;;;;;;;;18.10;74.40;;;;;;5013203;28;87403;-47
2023/06/01 11:51:23;;;;;;;;;;;18.10;74.30;;;;;;5012296;28;88125;-48
2023/06/01 11:53:50;;;;;;;;;;;18.20;74.20;;;;;;5014652;28;86996;-48
2023/06/01 11:56:16;;;;;;;;;;;18.20;74.20;;;;;;5014343;28;87492;-48
2023/06/01 11:58:41;;;;;;;;;;;18.20;74.20;;;;;;5013902;28;87092;-49
2023/06/01 12:01:07;;;;;;;;;;;18.20;74.10;;;;;;5015881;28;87032;-47
2023/06/01 12:03:33;;;;;;;;;;;18.30;74.10;;;;;;5013328;28;87878;-48
2023/06/01 12:05:58;;;;;;;;;;;18.30;74.10;;;;;;5014294;28;88088;-49
2023/06/01 12:08:24;;;;;;;;;;;18.30;74.00;;;;;;5012379;28;88386;-47
2023/06/01 12:10:52;;;;;;;;;;;18.30;74.00;;;;;;5013514;28;88137;-48
2023/06/01 12:13:18;;;;;;;;;;;18.30;74.00;;;;;;5014300;28;87244;-47
2023/06/01 12:15:44;;;;;;;;;;;18.30;74.10;;;;;;5012856;28;87011;-48
2023/06/01 12:18:10;;;;;;;;;;;18.30;74.10;;;;;;5012723;28;87996;-47
2023/06/01 12:20:36;;;;;;;;;;;18.30;74.20;;;;;;5012875;28;87125;-48
2023/06/01 12:23:19;;;;;;;;;;;18.30;74.10;;;;;;5017891;28;87422;-47
2023/06/01 12:25:52;;;;;;;;;;;18.30;74.00;;;;;;5014656;28;87021;-47
2023/06/01 12:28:17;;;;;;;;;;;18.30;74.10;;;;;;5013006;28;87501;-47
2023/06/01 12:30:43;;;;;;;;;;;18.30;74.10;;;;;;4993255;28;90919;-48
2023/06/01 12:33:29;;;;;;;;;;;18.30;74.00;;;;;;5014830;28;86988;-48
2023/06/01 12:35:54;;;;;;;;;;;18.40;74.00;;;;;;5014553;28;87483;-48
2023/06/01 12:38:20;;;;;;;;;;;18.40;74.00;;;;;;5012355;28;88609;-48
2023/06/01 12:40:46;;;;;;;;;;;18.40;74.10;;;;;;5012661;28;87408;-47
2023/06/01 12:43:21;;;;;;;;;;;18.40;73.90;;;;;;5014284;28;88042;-48
2023/06/01 12:45:46;;;;;;;;;;;18.40;73.80;;;;;;5016450;28;88165;-47
2023/06/01 12:48:33;;;;;;;;;;;18.40;73.80;;;;;;5014803;28;87226;-50
2023/06/01 12:50:59;;;;;;;;;;;18.40;73.70;;;;;;5013889;28;88053;-47
2023/06/01 12:53:25;;;;;;;;;;;18.50;73.70;;;;;;5012191;28;87623;-48
2023/06/01 12:55:51;;;;;;;;;;;18.50;73.60;;;;;;5012165;28;88032;-47
2023/06/01 12:58:16;;;;;;;;;;;18.50;73.50;;;;;;5013792;28;88026;-47
2023/06/01 13:00:42;;;;;;;;;;;18.50;73.40;;;;;;5012820;28;87070;-48
2023/06/01 13:03:07;;;;;;;;;;;18.50;73.30;;;;;;5011930;28;87436;-47
2023/06/01 13:05:33;;;;;;;;;;;18.60;73.30;;;;;;5011532;28;87290;-48
2023/06/01 13:07:59;;;;;;;;;;;18.50;73.30;;;;;;5017094;28;87282;-47
2023/06/01 13:10:25;;;;;;;;;;;18.50;73.20;;;;;;5011446;28;89831;-47
2023/06/01 13:12:51;;;;;;;;;;;18.60;73.10;;;;;;5012629;28;87491;-47
2023/06/01 13:15:17;;;;;;;;;;;18.60;73.00;;;;;;5012292;28;87113;-47
2023/06/01 13:17:42;;;;;;;;;;;18.70;72.80;;;;;;5012911;28;88095;-49
2023/06/01 13:20:10;;;;;;;;;;;18.70;72.80;;;;;;5011775;28;87975;-48
2023/06/01 13:22:36;;;;;;;;;;;18.70;72.80;;;;;;5011256;28;88157;-48
2023/06/01 13:25:02;;;;;;;;;;;18.80;72.90;;;;;;5013656;28;87117;-48
2023/06/01 13:27:27;;;;;;;;;;;18.80;72.80;;;;;;5015426;28;87720;-48
2023/06/01 13:29:53;;;;;;;;;;;18.80;72.90;;;;;;5012357;28;88203;-47
2023/06/01 13:32:18;;;;;;;;;;;18.80;72.90;;;;;;5010198;28;87506;-50
2023/06/01 13:34:44;;;;;;;;;;;18.90;72.90;;;;;;4994448;28;88248;-48
2023/06/01 13:37:10;;;;;;;;;;;18.90;72.90;;;;;;5012873;28;87604;-47
2023/06/01 13:39:35;;;;;;;;;;;18.90;72.80;;;;;;5010905;28;87135;-49
2023/06/01 13:42:02;;;;;;;;;;;19.00;72.70;;;;;;5013685;28;87537;-51
2023/06/01 13:44:28;;;;;;;;;;;18.90;72.60;;;;;;5011239;28;88995;-49
2023/06/01 13:46:53;;;;;;;;;;;19.00;72.70;;;;;;5011880;28;87182;-47
2023/06/01 13:49:19;;;;;;;;;;;19.00;72.60;;;;;;5016204;28;87310;-48
2023/06/01 13:51:44;;;;;;;;;;;19.10;72.50;;;;;;5011883;28;87187;-48
2023/06/01 13:54:12;;;;;;;;;;;19.10;72.50;;;;;;5011619;28;87528;-48
2023/06/01 13:56:38;;;;;;;;;;;19.20;72.50;;;;;;5013000;28;88072;-48
2023/06/01 13:59:04;;;;;;;;;;;19.20;72.40;;;;;;5011589;28;87093;-48
2023/06/01 14:01:29;;;;;;;;;;;19.20;72.30;;;;;;5012871;28;86690;-47
2023/06/01 14:03:55;;;;;;;;;;;19.20;72.50;;;;;;5013101;28;88182;-50
2023/06/01 14:06:20;;;;;;;;;;;19.20;72.50;;;;;;5010862;28;87119;-47
2023/06/01 14:08:46;;;;;;;;;;;19.20;72.50;;;;;;5011610;28;87974;-47
2023/06/01 14:11:12;;;;;;;;;;;19.20;72.60;;;;;;5015398;28;87386;-50
2023/06/01 14:13:37;;;;;;;;;;;19.20;72.70;;;;;;5012299;28;87419;-48
2023/06/01 14:16:03;;;;;;;;;;;19.20;72.60;;;;;;5015220;28;88177;-47